Time;durP1;ratioP1;P1;durP2;ratioP2;P2;SDS_P1;SDS_P2;PMS_P1;PMS_P2;Temp;Humidity;BMP_temperature;BMP_pressure;BME280_temperature;BME280_humidity;BME280_pressure;Samples;Min_cycle;Max_cycle;Signal;HPM_P1;HPM_P2
2022/04/04 00:01:08;;;;;;;4.45;1.48;;;;;;;;;;4907533;29;20044;-70
2022/04/04 00:03:34;;;;;;;3.95;1.30;;;;;;;;;;4908123;29;20505;-71
2022/04/04 00:05:59;;;;;;;3.50;1.55;;;;;;;;;;4905973;29;20048;-71
2022/04/04 00:08:25;;;;;;;7.40;1.40;;;;;;;;;;4907888;29;20274;-70
2022/04/04 00:10:51;;;;;;;5.05;1.40;;;;;;;;;;4908647;29;20044;-72
2022/04/04 00:13:17;;;;;;;3.83;1.42;;;;;;;;;;4908223;29;20064;-72
2022/04/04 00:15:43;;;;;;;3.85;1.27;;;;;;;;;;4907325;29;20550;-71
2022/04/04 00:18:10;;;;;;;8.40;1.75;;;;;;;;;;4909057;29;20473;-71
2022/04/04 00:20:37;;;;;;;3.72;1.30;;;;;;;;;;4909668;29;20056;-71
2022/04/04 00:23:03;;;;;;;4.30;1.08;;;;;;;;;;4907768;29;20223;-71
2022/04/04 00:25:29;;;;;;;2.67;1.00;;;;;;;;;;4906823;29;20207;-72
2022/04/04 00:27:55;;;;;;;5.03;2.25;;;;;;;;;;4906070;29;20040;-72
2022/04/04 00:30:21;;;;;;;4.03;1.23;;;;;;;;;;4911332;29;20119;-72
2022/04/04 00:32:46;;;;;;;4.70;1.40;;;;;;;;;;4911174;29;20136;-71
2022/04/04 00:35:12;;;;;;;3.20;1.13;;;;;;;;;;4910752;29;20048;-72
2022/04/04 00:37:38;;;;;;;4.63;1.60;;;;;;;;;;4910498;29;20051;-71
2022/04/04 00:40:08;;;;;;;3.53;1.15;;;;;;;;;;4910523;29;20036;-70
2022/04/04 00:42:34;;;;;;;5.28;1.27;;;;;;;;;;4908065;29;20515;-70
2022/04/04 00:45:00;;;;;;;5.95;1.15;;;;;;;;;;4907430;29;20458;-71
2022/04/04 00:47:27;;;;;;;2.60;1.10;;;;;;;;;;4911419;29;20094;-71
2022/04/04 00:49:52;;;;;;;4.78;1.35;;;;;;;;;;4912392;29;20502;-72
2022/04/04 00:52:18;;;;;;;6.75;1.25;;;;;;;;;;4910587;29;20078;-71
2022/04/04 00:54:47;;;;;;;5.20;1.20;;;;;;;;;;4909311;29;20078;-70
2022/04/04 00:57:14;;;;;;;5.03;1.23;;;;;;;;;;4911996;29;20107;-71
2022/04/04 00:59:40;;;;;;;2.72;1.10;;;;;;;;;;4910713;29;20073;-70
2022/04/04 01:02:06;;;;;;;3.13;1.63;;;;;;;;;;4912024;29;20050;-71
2022/04/04 01:04:32;;;;;;;4.18;1.50;;;;;;;;;;4914617;29;20593;-71
2022/04/04 01:07:02;;;;;;;4.97;1.38;;;;;;;;;;4911095;29;20070;-70
2022/04/04 01:09:28;;;;;;;6.18;1.67;;;;;;;;;;4909986;29;20092;-71
2022/04/04 01:12:06;;;;;;;5.43;1.38;;;;;;;;;;4910546;29;20048;-71
2022/04/04 01:14:36;;;;;;;6.47;1.35;;;;;;;;;;4910600;29;20048;-74
2022/04/04 01:17:03;;;;;;;3.50;1.25;;;;;;;;;;4908771;29;20410;-70
2022/04/04 01:19:29;;;;;;;5.82;1.50;;;;;;;;;;4910548;29;20048;-71
2022/04/04 01:21:55;;;;;;;3.83;1.23;;;;;;;;;;4911769;29;20054;-70
2022/04/04 01:24:22;;;;;;;4.07;1.13;;;;;;;;;;4912928;29;20048;-71
2022/04/04 01:26:49;;;;;;;4.85;1.52;;;;;;;;;;4912827;29;20044;-73
2022/04/04 01:29:15;;;;;;;3.80;1.60;;;;;;;;;;4910387;29;20056;-72
2022/04/04 01:31:42;;;;;;;5.10;1.52;;;;;;;;;;4912156;29;20052;-70
2022/04/04 01:34:07;;;;;;;3.83;1.88;;;;;;;;;;4910634;29;20107;-71
2022/04/04 01:36:33;;;;;;;6.82;1.60;;;;;;;;;;4911298;29;20502;-71
2022/04/04 01:38:59;;;;;;;6.25;1.40;;;;;;;;;;4910672;29;20188;-71
2022/04/04 01:41:25;;;;;;;2.75;1.20;;;;;;;;;;4909933;29;20207;-71
2022/04/04 01:43:52;;;;;;;4.78;1.42;;;;;;;;;;4911520;29;20083;-70
2022/04/04 01:46:24;;;;;;;2.17;1.20;;;;;;;;;;4910701;29;20064;-71
2022/04/04 01:48:54;;;;;;;2.28;1.10;;;;;;;;;;4910153;29;20127;-72
2022/04/04 01:51:21;;;;;;;5.20;1.15;;;;;;;;;;4908631;29;20055;-72
2022/04/04 01:53:47;;;;;;;4.55;1.30;;;;;;;;;;4907995;29;20036;-70
2022/04/04 01:56:15;;;;;;;2.45;1.55;;;;;;;;;;4907852;29;20135;-69
2022/04/04 01:58:41;;;;;;;3.95;1.45;;;;;;;;;;4911247;29;20127;-70
2022/04/04 02:01:14;;;;;;;7.90;1.50;;;;;;;;;;4910249;29;20130;-70
2022/04/04 02:03:41;;;;;;;6.65;1.85;;;;;;;;;;4906982;29;20100;-70
2022/04/04 02:06:07;;;;;;;6.32;1.88;;;;;;;;;;4905111;29;20527;-70
2022/04/04 02:08:33;;;;;;;6.82;1.90;;;;;;;;;;4909788;29;20533;-70
2022/04/04 02:11:00;;;;;;;4.85;2.10;;;;;;;;;;4909698;29;20138;-71
2022/04/04 02:13:26;;;;;;;4.85;2.05;;;;;;;;;;4907733;29;20048;-69
2022/04/04 02:15:53;;;;;;;6.63;1.88;;;;;;;;;;4910441;29;20096;-69
2022/04/04 02:18:20;;;;;;;4.50;2.30;;;;;;;;;;4902762;29;20044;-69
2022/04/04 02:20:47;;;;;;;4.28;1.80;;;;;;;;;;4904954;29;20052;-72
2022/04/04 02:23:17;;;;;;;4.10;2.05;;;;;;;;;;4906468;29;20499;-68
2022/04/04 02:25:44;;;;;;;8.25;2.15;;;;;;;;;;4908422;29;20135;-69
2022/04/04 02:28:11;;;;;;;7.18;2.38;;;;;;;;;;4905182;29;20056;-71
2022/04/04 02:30:37;;;;;;;9.75;2.60;;;;;;;;;;4901931;29;20127;-69
2022/04/04 02:33:03;;;;;;;6.18;2.40;;;;;;;;;;4908505;29;20135;-70
2022/04/04 02:35:29;;;;;;;7.93;2.22;;;;;;;;;;4909704;29;20158;-71
2022/04/04 02:37:55;;;;;;;6.90;2.20;;;;;;;;;;4907948;29;20052;-71
2022/04/04 02:40:22;;;;;;;6.28;2.35;;;;;;;;;;4909809;29;20044;-67
2022/04/04 02:42:48;;;;;;;7.80;2.00;;;;;;;;;;4906951;29;20135;-71
2022/04/04 02:45:14;;;;;;;4.00;2.10;;;;;;;;;;4908531;29;20055;-73
2022/04/04 02:47:41;;;;;;;5.60;2.08;;;;;;;;;;4908551;29;20139;-72
2022/04/04 02:50:08;;;;;;;6.25;2.53;;;;;;;;;;4908167;29;20048;-68
2022/04/04 02:52:34;;;;;;;5.22;2.40;;;;;;;;;;4910394;29;20395;-69
2022/04/04 02:56:28;;;;;;;9.85;2.70;;;;;;;;;;4904269;29;20224;-68
2022/04/04 02:57:46;;;;;;;7.13;2.40;;;;;;;;;;4908811;29;20056;-68
2022/04/04 03:00:14;;;;;;;6.63;2.30;;;;;;;;;;4910220;29;20358;-67
2022/04/04 03:02:40;;;;;;;8.63;2.20;;;;;;;;;;4913431;29;20460;-69
2022/04/04 03:05:06;;;;;;;4.20;2.13;;;;;;;;;;4910386;29;20143;-68
2022/04/04 03:07:32;;;;;;;4.82;1.88;;;;;;;;;;4910539;29;20052;-68
2022/04/04 03:09:57;;;;;;;4.03;1.80;;;;;;;;;;4884398;29;20266;-69
2022/04/04 03:12:24;;;;;;;4.22;1.60;;;;;;;;;;4909968;29;20205;-68
2022/04/04 03:14:50;;;;;;;4.65;1.80;;;;;;;;;;4910665;29;20088;-69
2022/04/04 03:17:17;;;;;;;5.65;2.17;;;;;;;;;;4910080;29;20102;-70
2022/04/04 03:19:42;;;;;;;3.58;1.58;;;;;;;;;;4908366;29;20051;-70
2022/04/04 03:22:08;;;;;;;6.25;1.88;;;;;;;;;;4907826;29;20044;-70
2022/04/04 03:24:34;;;;;;;5.13;2.00;;;;;;;;;;4908363;29;20048;-69
2022/04/04 03:27:01;;;;;;;6.78;1.70;;;;;;;;;;4907272;29;20044;-67
2022/04/04 03:29:26;;;;;;;3.45;1.77;;;;;;;;;;4909098;29;20059;-70
2022/04/04 03:31:53;;;;;;;2.72;1.65;;;;;;;;;;4908058;29;20048;-68
2022/04/04 03:34:19;;;;;;;3.58;1.50;;;;;;;;;;4906744;29;20050;-70
2022/04/04 03:36:46;;;;;;;5.55;1.95;;;;;;;;;;4902548;29;20128;-70
2022/04/04 03:39:16;;;;;;;2.58;1.63;;;;;;;;;;4908118;29;20051;-70
2022/04/04 03:41:45;;;;;;;3.92;1.70;;;;;;;;;;4907875;29;20063;-68
2022/04/04 03:44:12;;;;;;;3.83;1.83;;;;;;;;;;4905012;29;20048;-67
2022/04/04 03:46:38;;;;;;;3.08;1.50;;;;;;;;;;4906140;29;20619;-69
2022/04/04 03:49:06;;;;;;;3.47;1.52;;;;;;;;;;4908002;29;20478;-70
2022/04/04 03:51:32;;;;;;;3.78;1.40;;;;;;;;;;4907647;29;20053;-69
2022/04/04 03:53:58;;;;;;;6.40;1.77;;;;;;;;;;4907588;29;20163;-70
2022/04/04 03:56:24;;;;;;;4.85;1.67;;;;;;;;;;4907730;29;20581;-68
2022/04/04 03:58:50;;;;;;;4.95;1.35;;;;;;;;;;4908591;29;20541;-68
2022/04/04 04:01:16;;;;;;;7.00;1.50;;;;;;;;;;4900850;29;20054;-68
2022/04/04 04:03:42;;;;;;;2.85;1.70;;;;;;;;;;4912815;29;20418;-68
2022/04/04 04:06:11;;;;;;;3.67;1.73;;;;;;;;;;4911097;29;20454;-67
2022/04/04 04:08:45;;;;;;;6.15;1.77;;;;;;;;;;4912530;29;20052;-69
2022/04/04 04:11:13;;;;;;;6.03;1.98;;;;;;;;;;4908690;29;20044;-68
2022/04/04 04:13:41;;;;;;;3.53;1.55;;;;;;;;;;4908792;29;20048;-72
2022/04/04 04:16:09;;;;;;;4.47;1.80;;;;;;;;;;4912899;29;20040;-68
2022/04/04 04:18:36;;;;;;;3.67;1.50;;;;;;;;;;4912220;29;20513;-68
2022/04/04 04:21:03;;;;;;;7.47;1.80;;;;;;;;;;4910072;29;20043;-70
2022/04/04 04:23:29;;;;;;;3.30;1.83;;;;;;;;;;4910927;29;20043;-70
2022/04/04 04:25:55;;;;;;;2.78;1.55;;;;;;;;;;4911717;29;20054;-68
2022/04/04 04:28:21;;;;;;;3.80;1.70;;;;;;;;;;4908976;29;20048;-71
2022/04/04 04:30:47;;;;;;;6.70;1.95;;;;;;;;;;4910278;29;20405;-69
2022/04/04 04:33:13;;;;;;;2.88;1.67;;;;;;;;;;4912165;29;20398;-71
2022/04/04 04:35:40;;;;;;;5.20;1.90;;;;;;;;;;4911985;29;20052;-70
2022/04/04 04:38:06;;;;;;;3.20;2.00;;;;;;;;;;4912363;29;20059;-68
2022/04/04 04:40:32;;;;;;;8.40;1.85;;;;;;;;;;4913265;29;20056;-70
2022/04/04 04:42:58;;;;;;;3.47;2.00;;;;;;;;;;4909052;29;20443;-70
2022/04/04 04:45:24;;;;;;;5.90;1.98;;;;;;;;;;4907954;29;20044;-68
2022/04/04 04:47:50;;;;;;;4.13;2.20;;;;;;;;;;4898026;29;20643;-70
2022/04/04 04:50:18;;;;;;;2.90;1.70;;;;;;;;;;4899791;29;20040;-69
2022/04/04 04:52:46;;;;;;;6.57;1.83;;;;;;;;;;4905797;29;20044;-73
2022/04/04 04:55:13;;;;;;;3.70;2.05;;;;;;;;;;4903408;29;20051;-69
2022/04/04 04:57:40;;;;;;;5.45;1.80;;;;;;;;;;4905389;29;20040;-69
2022/04/04 05:00:08;;;;;;;3.75;1.90;;;;;;;;;;4905921;29;20077;-69
2022/04/04 05:02:35;;;;;;;4.40;1.90;;;;;;;;;;4905341;29;20063;-71
2022/04/04 05:05:02;;;;;;;4.22;1.70;;;;;;;;;;4904690;29;20383;-68
2022/04/04 05:07:28;;;;;;;3.65;1.80;;;;;;;;;;4905582;29;20052;-70
2022/04/04 05:09:54;;;;;;;4.82;1.80;;;;;;;;;;4905664;29;20127;-68
2022/04/04 05:12:20;;;;;;;4.90;1.70;;;;;;;;;;4902820;29;20047;-68
2022/04/04 05:14:45;;;;;;;5.00;1.90;;;;;;;;;;4904050;29;20052;-70
2022/04/04 05:17:11;;;;;;;5.95;1.73;;;;;;;;;;4903958;29;20066;-73
2022/04/04 05:19:38;;;;;;;4.18;2.13;;;;;;;;;;4905175;29;20044;-73
2022/04/04 05:22:04;;;;;;;5.15;1.95;;;;;;;;;;4905382;29;20056;-69
2022/04/04 05:24:31;;;;;;;4.78;1.98;;;;;;;;;;4904919;29;20147;-69
2022/04/04 05:26:57;;;;;;;3.53;2.15;;;;;;;;;;4899546;29;20044;-69
2022/04/04 05:29:26;;;;;;;3.95;1.90;;;;;;;;;;4905885;29;20522;-74
2022/04/04 05:31:54;;;;;;;4.78;2.33;;;;;;;;;;4903121;29;20058;-71
2022/04/04 05:34:20;;;;;;;3.47;2.10;;;;;;;;;;4903731;29;20044;-71
2022/04/04 05:36:47;;;;;;;8.18;2.60;;;;;;;;;;4902688;29;20052;-71
2022/04/04 05:39:13;;;;;;;4.97;1.90;;;;;;;;;;4904856;29;20048;-70
2022/04/04 05:41:40;;;;;;;4.97;2.13;;;;;;;;;;4902650;29;20058;-69
2022/04/04 05:44:06;;;;;;;4.85;2.30;;;;;;;;;;4903787;29;20279;-72
2022/04/04 05:46:33;;;;;;;6.80;2.35;;;;;;;;;;4903305;29;20284;-71
2022/04/04 05:49:00;;;;;;;8.40;2.40;;;;;;;;;;4900441;29;20071;-70
2022/04/04 05:51:30;;;;;;;7.05;2.42;;;;;;;;;;4902707;29;20059;-69
2022/04/04 05:53:56;;;;;;;4.57;1.98;;;;;;;;;;4899627;29;20553;-73
2022/04/04 05:56:21;;;;;;;5.13;2.47;;;;;;;;;;4903872;29;20058;-70
2022/04/04 05:58:51;;;;;;;5.03;2.30;;;;;;;;;;4901400;29;20051;-70
2022/04/04 06:01:17;;;;;;;8.50;2.30;;;;;;;;;;4902562;29;20048;-70
2022/04/04 06:03:42;;;;;;;5.72;2.28;;;;;;;;;;4903694;29;20047;-73
2022/04/04 06:06:08;;;;;;;4.80;2.38;;;;;;;;;;4902296;29;20052;-73
2022/04/04 06:08:34;;;;;;;8.00;2.13;;;;;;;;;;4901978;29;20083;-70
2022/04/04 06:11:01;;;;;;;5.85;2.53;;;;;;;;;;4901870;29;20134;-72
2022/04/04 06:13:26;;;;;;;7.40;2.05;;;;;;;;;;4902416;29;20303;-71
2022/04/04 06:15:53;;;;;;;4.35;2.63;;;;;;;;;;4905393;29;20549;-70
2022/04/04 06:18:19;;;;;;;4.07;2.30;;;;;;;;;;4900541;29;20466;-72
2022/04/04 06:20:45;;;;;;;7.88;2.47;;;;;;;;;;4903687;29;20052;-70
2022/04/04 06:23:14;;;;;;;6.25;2.72;;;;;;;;;;4902199;29;20048;-73
2022/04/04 06:25:41;;;;;;;6.22;2.65;;;;;;;;;;4900850;29;20185;-75
2022/04/04 06:28:07;;;;;;;4.45;2.35;;;;;;;;;;4902727;29;20058;-72
2022/04/04 06:30:34;;;;;;;6.30;2.80;;;;;;;;;;4900975;29;20060;-71
2022/04/04 06:33:03;;;;;;;6.57;3.25;;;;;;;;;;4899148;29;20148;-71
2022/04/04 06:35:29;;;;;;;7.07;2.50;;;;;;;;;;4901656;29;20052;-71
2022/04/04 06:37:55;;;;;;;6.97;2.60;;;;;;;;;;4902064;29;20433;-72
2022/04/04 06:40:22;;;;;;;5.97;2.90;;;;;;;;;;4904166;29;20072;-73
2022/04/04 06:42:51;;;;;;;5.55;2.40;;;;;;;;;;4905359;29;20509;-71
2022/04/04 06:45:19;;;;;;;5.60;2.80;;;;;;;;;;4906973;29;20055;-74
2022/04/04 06:47:45;;;;;;;10.32;2.58;;;;;;;;;;4903561;29;20494;-73
2022/04/04 06:50:13;;;;;;;13.40;3.10;;;;;;;;;;4905031;29;20359;-74
2022/04/04 06:52:40;;;;;;;6.45;2.42;;;;;;;;;;4904618;29;20048;-73
2022/04/04 06:55:07;;;;;;;9.63;2.92;;;;;;;;;;4902721;29;20166;-74
2022/04/04 06:57:33;;;;;;;7.60;2.70;;;;;;;;;;4904631;29;20063;-76
2022/04/04 07:00:00;;;;;;;4.50;2.45;;;;;;;;;;4905208;29;20322;-75
2022/04/04 07:02:26;;;;;;;5.60;2.53;;;;;;;;;;4903556;29;20056;-75
2022/04/04 07:04:52;;;;;;;6.90;2.67;;;;;;;;;;4901536;29;20051;-75
2022/04/04 07:07:18;;;;;;;8.98;2.60;;;;;;;;;;4903751;29;20054;-76
2022/04/04 07:09:45;;;;;;;6.28;2.92;;;;;;;;;;4904013;29;20036;-76
2022/04/04 07:12:11;;;;;;;9.73;3.05;;;;;;;;;;4906324;29;20051;-75
2022/04/04 07:14:37;;;;;;;9.25;2.88;;;;;;;;;;4903173;29;20056;-72
2022/04/04 07:17:03;;;;;;;9.15;3.10;;;;;;;;;;4901696;29;20111;-75
2022/04/04 07:19:33;;;;;;;11.75;3.08;;;;;;;;;;4905070;29;20052;-78
2022/04/04 07:22:02;;;;;;;5.40;2.50;;;;;;;;;;4906711;29;20076;-77
2022/04/04 07:24:28;;;;;;;7.45;2.60;;;;;;;;;;4907217;29;20138;-74
2022/04/04 07:26:55;;;;;;;6.47;2.60;;;;;;;;;;4905659;29;20987;-77
2022/04/04 07:29:21;;;;;;;8.07;2.88;;;;;;;;;;4912046;29;20506;-73
2022/04/04 07:31:47;;;;;;;8.88;3.20;;;;;;;;;;4914073;29;20048;-77
2022/04/04 07:34:14;;;;;;;10.70;3.10;;;;;;;;;;4914111;29;20051;-75
2022/04/04 07:36:40;;;;;;;6.97;2.95;;;;;;;;;;4916724;29;20096;-75
2022/04/04 07:39:08;;;;;;;8.50;2.63;;;;;;;;;;4916037;29;20083;-74
2022/04/04 07:41:35;;;;;;;8.25;3.22;;;;;;;;;;4917051;29;20067;-74
2022/04/04 07:44:02;;;;;;;10.05;3.00;;;;;;;;;;4916583;29;20147;-73
2022/04/04 07:46:28;;;;;;;8.57;4.00;;;;;;;;;;4908282;29;20155;-81
2022/04/04 07:48:57;;;;;;;8.15;2.88;;;;;;;;;;4906736;29;20059;-78
2022/04/04 07:51:23;;;;;;;11.50;3.50;;;;;;;;;;4911701;29;20495;-81
2022/04/04 07:53:49;;;;;;;8.20;3.10;;;;;;;;;;4912407;29;20141;-76
2022/04/04 07:56:15;;;;;;;11.75;3.38;;;;;;;;;;4904063;29;20083;-76
2022/04/04 07:58:42;;;;;;;9.50;3.85;;;;;;;;;;4904978;29;20063;-78
2022/04/04 08:01:08;;;;;;;13.70;3.72;;;;;;;;;;4911247;29;20056;-75
2022/04/04 08:03:34;;;;;;;13.02;3.38;;;;;;;;;;4910647;29;21153;-80
2022/04/04 08:06:00;;;;;;;9.45;3.15;;;;;;;;;;4908864;29;20275;-77
2022/04/04 08:08:26;;;;;;;10.38;3.45;;;;;;;;;;4909470;29;20071;-77
2022/04/04 08:10:52;;;;;;;11.95;3.40;;;;;;;;;;4910134;29;20040;-74
2022/04/04 08:13:18;;;;;;;9.90;3.42;;;;;;;;;;4909425;29;20044;-78
2022/04/04 08:15:45;;;;;;;8.07;3.30;;;;;;;;;;4909167;29;20048;-79
2022/04/04 08:18:11;;;;;;;8.57;3.22;;;;;;;;;;4904006;29;20055;-79
2022/04/04 08:20:37;;;;;;;9.38;3.50;;;;;;;;;;4906128;29;20059;-76
2022/04/04 08:23:03;;;;;;;8.25;3.70;;;;;;;;;;4912451;29;20131;-79
2022/04/04 08:25:29;;;;;;;9.93;3.45;;;;;;;;;;4910591;29;20052;-77
2022/04/04 08:27:55;;;;;;;8.98;3.78;;;;;;;;;;4907287;29;20677;-73
2022/04/04 08:30:21;;;;;;;10.23;3.85;;;;;;;;;;4911495;29;20074;-74
2022/04/04 08:32:47;;;;;;;10.80;3.45;;;;;;;;;;4908000;29;20048;-75
2022/04/04 08:35:14;;;;;;;12.65;3.90;;;;;;;;;;4908148;29;20060;-74
2022/04/04 08:37:43;;;;;;;12.45;3.67;;;;;;;;;;4907840;29;20127;-76
2022/04/04 08:40:11;;;;;;;14.90;3.60;;;;;;;;;;4909090;29;20076;-75
2022/04/04 08:42:38;;;;;;;17.45;3.80;;;;;;;;;;4910928;29;20056;-82
2022/04/04 08:45:06;;;;;;;17.05;3.88;;;;;;;;;;4911458;29;20048;-79
2022/04/04 08:47:33;;;;;;;18.65;3.88;;;;;;;;;;4906716;29;20063;-78
2022/04/04 08:50:00;;;;;;;14.63;4.75;;;;;;;;;;4907300;29;20486;-79
2022/04/04 08:52:27;;;;;;;15.80;3.83;;;;;;;;;;4904015;29;20096;-75
2022/04/04 08:54:53;;;;;;;14.60;3.30;;;;;;;;;;4911286;29;20079;-78
2022/04/04 08:57:19;;;;;;;13.73;3.60;;;;;;;;;;4907192;29;20052;-73
2022/04/04 08:59:45;;;;;;;11.73;3.65;;;;;;;;;;4913316;29;20055;-76
2022/04/04 09:02:12;;;;;;;10.90;3.40;;;;;;;;;;4915728;29;20043;-74
2022/04/04 09:04:40;;;;;;;8.40;2.88;;;;;;;;;;4913275;29;20134;-76
2022/04/04 09:07:11;;;;;;;10.48;3.38;;;;;;;;;;4909814;29;20052;-79
2022/04/04 09:09:40;;;;;;;9.48;3.05;;;;;;;;;;4909650;29;20174;-77
2022/04/04 09:12:15;;;;;;;13.55;3.95;;;;;;;;;;4907382;29;20040;-74
2022/04/04 09:14:46;;;;;;;7.70;3.00;;;;;;;;;;4908621;29;20071;-76
2022/04/04 09:17:13;;;;;;;16.05;4.78;;;;;;;;;;4901251;29;20052;-73
2022/04/04 09:19:40;;;;;;;13.23;3.40;;;;;;;;;;4906503;29;20115;-74
2022/04/04 09:22:14;;;;;;;10.20;3.05;;;;;;;;;;4904372;29;20056;-74
2022/04/04 09:24:44;;;;;;;15.23;3.50;;;;;;;;;;4904625;29;20044;-73
2022/04/04 09:27:12;;;;;;;11.50;3.33;;;;;;;;;;4899013;29;20047;-73
2022/04/04 09:29:42;;;;;;;11.77;3.20;;;;;;;;;;4904394;29;20248;-75
2022/04/04 09:32:14;;;;;;;10.85;3.00;;;;;;;;;;4906761;29;20094;-73
2022/04/04 09:35:02;;;;;;;15.10;4.13;;;;;;;;;;4905109;29;20063;-74
2022/04/04 09:37:33;;;;;;;21.13;5.25;;;;;;;;;;4902725;29;20470;-73
2022/04/04 09:40:07;;;;;;;11.10;3.53;;;;;;;;;;4905582;29;20425;-73
2022/04/04 09:42:34;;;;;;;18.48;3.60;;;;;;;;;;4901971;29;20111;-73
2022/04/04 09:45:02;;;;;;;10.27;3.00;;;;;;;;;;4904120;29;20052;-71
2022/04/04 09:47:49;;;;;;;11.10;2.90;;;;;;;;;;4900101;29;20167;-72
2022/04/04 09:50:35;;;;;;;12.77;3.60;;;;;;;;;;4905063;29;20052;-72
2022/04/04 09:53:04;;;;;;;8.23;3.05;;;;;;;;;;4905641;29;20067;-72
2022/04/04 09:55:32;;;;;;;11.77;3.30;;;;;;;;;;4902189;29;20064;-73
2022/04/04 09:58:00;;;;;;;11.73;3.05;;;;;;;;;;4883672;29;20048;-73
2022/04/04 10:00:26;;;;;;;10.85;2.63;;;;;;;;;;4903178;29;20048;-75
2022/04/04 10:02:57;;;;;;;20.88;4.22;;;;;;;;;;4903368;29;20059;-71
2022/04/04 10:05:26;;;;;;;15.13;3.65;;;;;;;;;;4903957;29;20071;-73
2022/04/04 10:07:58;;;;;;;9.38;3.30;;;;;;;;;;4900366;29;20051;-72
2022/04/04 10:10:29;;;;;;;8.57;2.67;;;;;;;;;;4905536;29;20064;-72
2022/04/04 10:12:56;;;;;;;17.00;3.08;;;;;;;;;;4902814;29;20072;-73
2022/04/04 10:15:23;;;;;;;18.02;3.45;;;;;;;;;;4903648;29;21117;-72
2022/04/04 10:17:50;;;;;;;9.93;3.25;;;;;;;;;;4898582;29;20530;-72
2022/04/04 10:20:17;;;;;;;12.25;3.28;;;;;;;;;;4902885;29;20493;-73
2022/04/04 10:22:45;;;;;;;8.60;3.05;;;;;;;;;;4905739;29;20413;-73
2022/04/04 10:25:17;;;;;;;10.98;3.20;;;;;;;;;;4905975;29;20116;-73
2022/04/04 10:27:47;;;;;;;26.27;4.88;;;;;;;;;;4901903;29;20071;-72
2022/04/04 10:30:16;;;;;;;13.07;3.67;;;;;;;;;;4906078;29;20048;-74
2022/04/04 10:32:51;;;;;;;11.68;3.80;;;;;;;;;;4905049;29;20044;-73
2022/04/04 10:35:30;;;;;;;12.00;3.13;;;;;;;;;;4903645;29;20048;-72
2022/04/04 10:38:03;;;;;;;10.43;3.15;;;;;;;;;;4897779;29;20142;-69
2022/04/04 10:40:32;;;;;;;11.38;3.40;;;;;;;;;;4903223;29;20060;-71
2022/04/04 10:43:14;;;;;;;11.55;3.22;;;;;;;;;;4900917;29;20067;-72
2022/04/04 10:45:58;;;;;;;12.70;3.47;;;;;;;;;;4894499;29;20052;-74
2022/04/04 10:48:50;;;;;;;9.68;3.00;;;;;;;;;;4895412;29;20056;-75
2022/04/04 10:51:20;;;;;;;11.63;3.42;;;;;;;;;;4900588;29;20502;-70
2022/04/04 10:53:55;;;;;;;9.93;3.05;;;;;;;;;;4905045;29;20047;-72
2022/04/04 10:56:39;;;;;;;12.77;3.72;;;;;;;;;;4903296;29;20059;-73
2022/04/04 10:59:19;;;;;;;14.18;4.05;;;;;;;;;;4901852;29;20051;-73
2022/04/04 11:01:48;;;;;;;9.27;3.30;;;;;;;;;;4905323;29;20074;-74
2022/04/04 11:04:28;;;;;;;11.18;3.55;;;;;;;;;;4904636;29;20040;-74
2022/04/04 11:09:55;;;;;;;14.10;3.63;;;;;;;;;;4904967;29;20135;-70
2022/04/04 11:12:24;;;;;;;13.80;4.03;;;;;;;;;;4906442;29;20059;-72
2022/04/04 11:14:54;;;;;;;18.30;3.63;;;;;;;;;;4905263;29;20099;-70
2022/04/04 11:17:43;;;;;;;13.70;3.78;;;;;;;;;;4902161;29;20056;-71
2022/04/04 11:20:31;;;;;;;13.13;3.90;;;;;;;;;;4904148;29;20164;-71
2022/04/04 11:22:59;;;;;;;9.15;4.05;;;;;;;;;;4904539;29;20044;-72
2022/04/04 11:25:29;;;;;;;9.95;3.60;;;;;;;;;;4906641;29;20118;-69
2022/04/04 11:27:57;;;;;;;12.13;4.05;;;;;;;;;;4899459;29;20400;-69
2022/04/04 11:30:27;;;;;;;13.65;3.70;;;;;;;;;;4903104;29;20147;-70
2022/04/04 11:32:59;;;;;;;11.00;4.13;;;;;;;;;;4902976;29;20064;-68
2022/04/04 11:35:30;;;;;;;15.52;3.92;;;;;;;;;;4890627;29;20051;-69
2022/04/04 11:38:07;;;;;;;12.38;4.30;;;;;;;;;;4901336;29;20046;-73
2022/04/04 11:40:38;;;;;;;17.15;5.53;;;;;;;;;;4903859;29;20241;-71
2022/04/04 11:43:13;;;;;;;12.65;3.65;;;;;;;;;;4901160;29;20068;-76
2022/04/04 11:45:41;;;;;;;10.15;4.32;;;;;;;;;;4903928;29;20084;-74
2022/04/04 11:48:17;;;;;;;13.80;4.25;;;;;;;;;;4905021;29;20788;-79
2022/04/04 11:50:45;;;;;;;15.18;4.53;;;;;;;;;;4905071;29;20503;-75
2022/04/04 11:53:14;;;;;;;12.00;3.90;;;;;;;;;;4904118;29;20063;-74
2022/04/04 11:55:45;;;;;;;13.07;4.13;;;;;;;;;;4898714;29;20494;-76
2022/04/04 11:58:13;;;;;;;13.90;4.10;;;;;;;;;;4903179;29;20091;-78
2022/04/04 12:00:44;;;;;;;10.23;4.05;;;;;;;;;;4903379;29;20068;-75
2022/04/04 12:03:11;;;;;;;14.98;4.00;;;;;;;;;;4904757;29;20691;-79
2022/04/04 12:05:41;;;;;;;11.38;4.10;;;;;;;;;;4903073;29;20064;-74
2022/04/04 12:08:09;;;;;;;13.68;4.40;;;;;;;;;;4905872;29;20052;-75
2022/04/04 12:10:36;;;;;;;12.98;4.72;;;;;;;;;;4909412;29;20056;-79
2022/04/04 12:13:10;;;;;;;20.65;4.57;;;;;;;;;;4910103;29;20052;-75
2022/04/04 12:15:40;;;;;;;18.20;4.32;;;;;;;;;;4907111;29;20078;-80
2022/04/04 12:18:07;;;;;;;13.57;4.40;;;;;;;;;;4899241;29;20067;-79
2022/04/04 12:20:40;;;;;;;10.95;3.78;;;;;;;;;;4906305;29;20167;-77
2022/04/04 12:25:58;;;;;;;12.70;4.43;;;;;;;;;;4909041;29;20055;-78
2022/04/04 12:28:28;;;;;;;13.02;3.75;;;;;;;;;;4906511;29;20044;-80
2022/04/04 12:30:54;;;;;;;14.80;3.88;;;;;;;;;;4908923;29;20044;-74
2022/04/04 12:33:29;;;;;;;13.60;4.03;;;;;;;;;;4905792;29;20453;-76
2022/04/04 12:35:55;;;;;;;10.45;4.55;;;;;;;;;;4906109;29;20052;-77
2022/04/04 12:38:30;;;;;;;10.05;4.25;;;;;;;;;;4904736;29;20062;-76
2022/04/04 12:41:09;;;;;;;20.30;4.03;;;;;;;;;;4903858;29;20103;-77
2022/04/04 12:43:37;;;;;;;14.95;4.15;;;;;;;;;;4904562;29;20048;-75
2022/04/04 12:46:06;;;;;;;15.43;4.43;;;;;;;;;;4909097;29;21003;-79
2022/04/04 12:48:37;;;;;;;14.85;4.97;;;;;;;;;;4908805;29;20052;-78
2022/04/04 12:51:04;;;;;;;9.18;4.00;;;;;;;;;;4909057;29;20044;-77
2022/04/04 12:53:46;;;;;;;14.88;3.78;;;;;;;;;;4915246;29;20115;-75
2022/04/04 12:56:13;;;;;;;11.15;4.10;;;;;;;;;;4910769;29;20055;-75
2022/04/04 12:58:39;;;;;;;9.75;3.47;;;;;;;;;;4907842;29;20228;-75
2022/04/04 13:01:11;;;;;;;12.27;3.78;;;;;;;;;;4893580;29;20114;-74
2022/04/04 13:03:47;;;;;;;10.60;3.65;;;;;;;;;;4901617;29;20062;-77
2022/04/04 13:06:13;;;;;;;11.63;4.13;;;;;;;;;;4909186;29;20055;-77
2022/04/04 13:08:39;;;;;;;9.18;3.63;;;;;;;;;;4905855;29;20508;-74
2022/04/04 13:11:11;;;;;;;12.15;3.97;;;;;;;;;;4911760;29;20147;-77
2022/04/04 13:14:05;;;;;;;10.52;3.50;;;;;;;;;;4909285;29;20387;-74
2022/04/04 13:16:34;;;;;;;18.45;4.40;;;;;;;;;;4907255;29;20082;-78
2022/04/04 13:19:01;;;;;;;9.52;4.10;;;;;;;;;;4906802;29;20059;-77
2022/04/04 13:21:27;;;;;;;9.02;3.20;;;;;;;;;;4909940;29;20537;-76
2022/04/04 13:23:53;;;;;;;11.98;3.83;;;;;;;;;;4908497;29;20071;-79
2022/04/04 13:26:20;;;;;;;12.05;3.55;;;;;;;;;;4906919;29;20047;-72
2022/04/04 13:28:45;;;;;;;13.90;3.97;;;;;;;;;;4905234;29;20060;-76
2022/04/04 13:31:11;;;;;;;13.95;4.28;;;;;;;;;;4904320;29;20066;-74
2022/04/04 13:33:37;;;;;;;13.80;3.72;;;;;;;;;;4907613;29;20127;-77
2022/04/04 13:36:06;;;;;;;13.38;3.58;;;;;;;;;;4906320;29;20146;-76
2022/04/04 13:38:32;;;;;;;12.93;3.67;;;;;;;;;;4904188;29;20363;-79
2022/04/04 13:40:58;;;;;;;13.25;3.38;;;;;;;;;;4906169;29;20442;-77
2022/04/04 13:43:26;;;;;;;15.43;3.35;;;;;;;;;;4910401;29;20059;-78
2022/04/04 13:45:53;;;;;;;10.75;3.63;;;;;;;;;;4902989;29;20058;-76
2022/04/04 13:48:20;;;;;;;8.25;2.08;;;;;;;;;;4904150;29;20054;-76
2022/04/04 13:50:46;;;;;;;13.02;2.85;;;;;;;;;;4899543;29;20078;-77
2022/04/04 13:53:12;;;;;;;9.82;2.70;;;;;;;;;;4909148;29;20074;-79
2022/04/04 13:55:38;;;;;;;8.32;2.45;;;;;;;;;;4905807;29;20062;-75
2022/04/04 13:58:04;;;;;;;11.85;2.35;;;;;;;;;;4904846;29;20052;-79
2022/04/04 14:00:29;;;;;;;10.85;2.15;;;;;;;;;;4906724;29;20048;-77
2022/04/04 14:02:55;;;;;;;12.32;2.40;;;;;;;;;;4906351;29;20060;-76
2022/04/04 14:05:21;;;;;;;6.53;2.10;;;;;;;;;;4903488;29;21001;-77
2022/04/04 14:07:47;;;;;;;10.18;2.15;;;;;;;;;;4903102;29;20052;-74
2022/04/04 14:10:13;;;;;;;12.25;2.05;;;;;;;;;;4890065;29;20063;-76
2022/04/04 14:12:39;;;;;;;17.27;2.42;;;;;;;;;;4906937;29;20154;-75
2022/04/04 14:15:06;;;;;;;10.80;1.90;;;;;;;;;;4905523;29;20060;-78
2022/04/04 14:17:36;;;;;;;12.40;2.28;;;;;;;;;;4903175;29;20153;-77
2022/04/04 14:20:06;;;;;;;11.35;2.42;;;;;;;;;;4905843;29;20048;-77
2022/04/04 14:22:33;;;;;;;10.40;2.28;;;;;;;;;;4909161;29;20064;-75
2022/04/04 14:25:00;;;;;;;14.60;3.40;;;;;;;;;;4907740;29;20123;-80
2022/04/04 14:27:28;;;;;;;9.15;2.45;;;;;;;;;;4904290;29;20123;-78
2022/04/04 14:29:55;;;;;;;7.65;2.00;;;;;;;;;;4907066;29;20079;-81
2022/04/04 14:32:21;;;;;;;7.00;2.25;;;;;;;;;;4903145;29;20088;-76
2022/04/04 14:34:48;;;;;;;11.90;2.67;;;;;;;;;;4906836;29;20036;-78
2022/04/04 14:37:14;;;;;;;15.85;2.53;;;;;;;;;;4896665;29;20131;-76
2022/04/04 14:39:43;;;;;;;7.78;2.33;;;;;;;;;;4906255;29;20063;-75
2022/04/04 14:42:13;;;;;;;10.88;2.30;;;;;;;;;;4905250;29;20493;-75
2022/04/04 14:44:41;;;;;;;9.68;2.42;;;;;;;;;;4906816;29;20052;-74
2022/04/04 14:47:07;;;;;;;12.10;3.83;;;;;;;;;;4901439;29;20119;-80
2022/04/04 14:49:33;;;;;;;11.75;2.50;;;;;;;;;;4916075;29;20056;-76